Time;durP1;ratioP1;P1;durP2;ratioP2;P2;SDS_P1;SDS_P2;PMS_P1;PMS_P2;Temp;Humidity;BMP_temperature;BMP_pressure;BME280_temperature;BME280_humidity;BME280_pressure;Samples;Min_cycle;Max_cycle;Signal;HPM_P1;HPM_P2
2022/07/26 00:00:23;;;;;;;13.25;3.80;;;;;;;;;;5035415;28;20523;-81
2022/07/26 00:02:50;;;;;;;11.70;3.40;;;;;;;;;;5036945;28;20442;-81
2022/07/26 00:05:17;;;;;;;10.43;3.70;;;;;;;;;;5036269;28;20434;-82
2022/07/26 00:07:44;;;;;;;10.35;3.65;;;;;;;;;;5035786;28;20446;-82
2022/07/26 00:10:11;;;;;;;14.20;3.97;;;;;;;;;;5037406;28;20427;-81
2022/07/26 00:12:37;;;;;;;9.70;3.50;;;;;;;;;;5039966;28;20411;-82
2022/07/26 00:15:05;;;;;;;11.85;4.00;;;;;;;;;;5039474;28;20430;-81
2022/07/26 00:17:31;;;;;;;15.00;4.30;;;;;;;;;;5039198;28;20411;-82
2022/07/26 00:19:59;;;;;;;13.18;3.88;;;;;;;;;;5038441;28;20436;-82
2022/07/26 00:22:35;;;;;;;9.68;3.90;;;;;;;;;;5032616;28;20410;-82
2022/07/26 00:25:02;;;;;;;13.05;3.80;;;;;;;;;;5037200;28;20437;-81
2022/07/26 00:27:28;;;;;;;10.95;4.03;;;;;;;;;;5018783;28;20903;-82
2022/07/26 00:29:55;;;;;;;10.02;3.88;;;;;;;;;;5038133;28;20425;-84
2022/07/26 00:32:22;;;;;;;10.30;3.85;;;;;;;;;;5036014;28;20405;-82
2022/07/26 00:34:50;;;;;;;10.57;4.28;;;;;;;;;;5038579;28;20782;-82
2022/07/26 00:37:18;;;;;;;11.70;3.63;;;;;;;;;;5036304;28;20519;-82
2022/07/26 00:39:45;;;;;;;14.18;3.97;;;;;;;;;;5036378;28;20423;-82
2022/07/26 00:42:12;;;;;;;9.10;3.80;;;;;;;;;;5034060;28;20441;-82
2022/07/26 00:44:39;;;;;;;13.77;4.20;;;;;;;;;;5038596;28;20427;-84
2022/07/26 00:47:06;;;;;;;14.95;4.20;;;;;;;;;;5034378;28;20439;-81
2022/07/26 00:49:32;;;;;;;9.35;4.00;;;;;;;;;;5036803;28;20959;-83
2022/07/26 00:51:58;;;;;;;14.52;4.55;;;;;;;;;;5033311;28;20430;-83
2022/07/26 00:54:26;;;;;;;14.73;4.03;;;;;;;;;;5022746;28;20471;-83
2022/07/26 00:56:53;;;;;;;12.35;4.00;;;;;;;;;;5033108;28;20440;-84
2022/07/26 00:59:19;;;;;;;14.65;3.78;;;;;;;;;;5033342;28;20419;-83
2022/07/26 01:01:45;;;;;;;12.27;3.87;;;;;;;;;;5037211;28;20441;-84
2022/07/26 01:04:12;;;;;;;12.38;3.78;;;;;;;;;;5033761;28;20853;-83
2022/07/26 01:06:38;;;;;;;13.07;4.60;;;;;;;;;;5003899;28;20434;-83
2022/07/26 01:09:05;;;;;;;13.65;4.40;;;;;;;;;;5035729;28;20431;-83
2022/07/26 01:11:32;;;;;;;12.40;3.78;;;;;;;;;;5034524;28;20435;-84
2022/07/26 01:13:59;;;;;;;11.13;3.40;;;;;;;;;;5035400;28;20473;-83
2022/07/26 01:16:25;;;;;;;14.13;4.07;;;;;;;;;;5032671;28;20443;-85
2022/07/26 01:18:52;;;;;;;11.98;4.53;;;;;;;;;;5035069;28;20440;-83
2022/07/26 01:21:20;;;;;;;11.93;3.92;;;;;;;;;;5033965;28;20947;-83
2022/07/26 01:23:48;;;;;;;13.75;4.25;;;;;;;;;;5033027;28;21020;-83
2022/07/26 01:26:15;;;;;;;10.57;4.22;;;;;;;;;;5036736;28;20808;-85
2022/07/26 01:28:41;;;;;;;13.90;4.40;;;;;;;;;;5035580;28;20811;-84
2022/07/26 01:31:08;;;;;;;12.20;4.20;;;;;;;;;;5033125;28;20464;-83
2022/07/26 01:33:34;;;;;;;11.93;3.92;;;;;;;;;;5034741;28;20536;-83
2022/07/26 01:36:01;;;;;;;10.75;3.90;;;;;;;;;;5007550;28;20474;-82
2022/07/26 01:38:28;;;;;;;12.80;3.95;;;;;;;;;;5037929;28;20422;-82
2022/07/26 01:40:55;;;;;;;11.48;3.80;;;;;;;;;;5034521;28;20431;-83
2022/07/26 01:43:22;;;;;;;13.18;4.00;;;;;;;;;;5035630;28;20946;-86
2022/07/26 01:45:48;;;;;;;11.38;4.38;;;;;;;;;;5005666;28;20419;-83
2022/07/26 01:48:15;;;;;;;14.60;4.40;;;;;;;;;;5015390;28;20432;-83
2022/07/26 01:50:42;;;;;;;9.85;4.30;;;;;;;;;;5039002;28;20584;-83
2022/07/26 01:53:08;;;;;;;15.23;4.03;;;;;;;;;;5038549;28;20502;-83
2022/07/26 01:55:35;;;;;;;8.95;3.90;;;;;;;;;;5039899;28;20424;-83
2022/07/26 01:58:04;;;;;;;11.83;4.30;;;;;;;;;;5041157;28;20423;-83
2022/07/26 02:00:30;;;;;;;13.98;4.32;;;;;;;;;;5035599;28;20488;-84
2022/07/26 02:02:57;;;;;;;17.73;5.68;;;;;;;;;;5036734;28;20461;-83
2022/07/26 02:05:23;;;;;;;11.40;4.70;;;;;;;;;;5032752;28;20440;-83
2022/07/26 02:07:50;;;;;;;10.60;4.80;;;;;;;;;;5039196;28;20411;-83
2022/07/26 02:10:16;;;;;;;15.30;4.70;;;;;;;;;;5036077;28;20438;-83
2022/07/26 02:12:43;;;;;;;13.75;4.53;;;;;;;;;;5038459;28;20428;-84
2022/07/26 02:15:11;;;;;;;11.65;4.75;;;;;;;;;;5042111;28;20428;-83
2022/07/26 02:17:38;;;;;;;11.77;4.35;;;;;;;;;;5019965;28;20431;-83
2022/07/26 02:20:06;;;;;;;17.07;5.23;;;;;;;;;;5017439;28;20435;-83
2022/07/26 02:22:32;;;;;;;14.43;4.70;;;;;;;;;;5038125;28;20429;-81
2022/07/26 02:25:00;;;;;;;15.63;5.03;;;;;;;;;;5039630;28;20800;-84
2022/07/26 02:27:26;;;;;;;16.63;5.10;;;;;;;;;;5039167;28;20410;-82
2022/07/26 02:29:53;;;;;;;13.82;4.30;;;;;;;;;;5039418;28;20445;-83
2022/07/26 02:32:22;;;;;;;14.23;4.85;;;;;;;;;;5035776;28;20422;-83
2022/07/26 02:34:48;;;;;;;15.90;4.78;;;;;;;;;;5014107;28;20437;-83
2022/07/26 02:37:15;;;;;;;14.00;5.00;;;;;;;;;;5035100;28;20437;-84
2022/07/26 02:39:41;;;;;;;14.65;4.45;;;;;;;;;;5036509;28;20812;-84
2022/07/26 02:42:08;;;;;;;13.55;4.40;;;;;;;;;;5036513;28;20452;-83
2022/07/26 02:44:35;;;;;;;13.52;5.10;;;;;;;;;;5037838;28;20807;-83
2022/07/26 02:47:01;;;;;;;15.05;5.00;;;;;;;;;;5041462;28;20932;-83
2022/07/26 02:49:29;;;;;;;12.38;4.82;;;;;;;;;;5006556;28;20421;-83
2022/07/26 02:51:55;;;;;;;14.77;4.95;;;;;;;;;;5037474;28;20431;-83
2022/07/26 02:54:22;;;;;;;18.45;5.50;;;;;;;;;;5033114;28;20429;-83
2022/07/26 02:56:48;;;;;;;13.30;5.00;;;;;;;;;;5040185;28;20454;-83
2022/07/26 02:59:14;;;;;;;16.30;6.00;;;;;;;;;;5038225;28;20423;-84
2022/07/26 03:01:41;;;;;;;14.90;5.73;;;;;;;;;;5038550;28;20430;-83
2022/07/26 03:04:07;;;;;;;17.45;6.20;;;;;;;;;;5034777;28;20423;-84
2022/07/26 03:06:35;;;;;;;16.65;5.57;;;;;;;;;;5040779;28;20463;-83
2022/07/26 03:09:02;;;;;;;14.82;5.40;;;;;;;;;;5034806;28;20796;-84
2022/07/26 03:11:28;;;;;;;15.90;5.90;;;;;;;;;;5038562;28;20435;-83
2022/07/26 03:13:54;;;;;;;15.95;5.70;;;;;;;;;;5036877;28;20453;-83
2022/07/26 03:16:21;;;;;;;15.20;5.20;;;;;;;;;;5036952;28;20433;-83
2022/07/26 03:18:47;;;;;;;15.02;5.15;;;;;;;;;;5036989;28;20424;-83
2022/07/26 03:21:14;;;;;;;14.13;4.85;;;;;;;;;;5034678;28;20430;-83
2022/07/26 03:23:42;;;;;;;18.85;5.78;;;;;;;;;;5036123;28;20462;-83
2022/07/26 03:26:08;;;;;;;14.52;5.03;;;;;;;;;;5017867;28;20434;-83
2022/07/26 03:28:35;;;;;;;16.45;5.63;;;;;;;;;;5040536;28;20986;-83
2022/07/26 03:31:01;;;;;;;17.47;5.53;;;;;;;;;;5037473;28;20442;-83
2022/07/26 03:33:28;;;;;;;13.68;5.10;;;;;;;;;;5037267;28;20446;-83
2022/07/26 03:35:54;;;;;;;14.02;4.80;;;;;;;;;;5017900;28;20438;-83
2022/07/26 03:38:21;;;;;;;13.55;5.28;;;;;;;;;;5038378;28;20436;-83
2022/07/26 03:40:48;;;;;;;12.40;5.90;;;;;;;;;;5022589;28;20425;-83
2022/07/26 03:43:15;;;;;;;14.55;5.80;;;;;;;;;;5037117;28;20451;-83
2022/07/26 03:45:42;;;;;;;15.60;5.55;;;;;;;;;;5036650;28;20430;-83
2022/07/26 03:48:09;;;;;;;17.88;5.40;;;;;;;;;;5036434;28;20421;-83
2022/07/26 03:50:35;;;;;;;13.55;5.20;;;;;;;;;;5036188;28;20421;-83
2022/07/26 03:53:02;;;;;;;15.30;4.88;;;;;;;;;;5034861;28;20448;-83
2022/07/26 03:58:15;;;;;;;13.90;5.72;;;;;;;;;;5024767;28;20535;-82
2022/07/26 04:00:42;;;;;;;15.13;5.30;;;;;;;;;;5005278;28;20459;-84
2022/07/26 04:03:08;;;;;;;17.13;5.30;;;;;;;;;;5034747;28;20431;-83
2022/07/26 04:05:35;;;;;;;13.13;5.05;;;;;;;;;;5034895;28;20426;-83
2022/07/26 04:08:01;;;;;;;14.18;5.15;;;;;;;;;;5038111;28;20417;-84
2022/07/26 04:10:27;;;;;;;12.27;5.03;;;;;;;;;;5032375;28;20440;-83
2022/07/26 04:12:54;;;;;;;12.55;5.00;;;;;;;;;;5034523;28;20415;-83
2022/07/26 04:15:22;;;;;;;15.65;5.35;;;;;;;;;;5018918;28;20433;-82
2022/07/26 04:17:48;;;;;;;16.83;5.93;;;;;;;;;;5034282;28;20427;-83
2022/07/26 04:20:15;;;;;;;14.60;6.25;;;;;;;;;;5036745;28;20435;-82
2022/07/26 04:22:42;;;;;;;14.95;5.95;;;;;;;;;;5033584;28;20427;-84
2022/07/26 04:25:09;;;;;;;15.23;5.93;;;;;;;;;;5035598;28;20443;-83
2022/07/26 04:27:35;;;;;;;13.10;5.50;;;;;;;;;;5020586;28;20506;-82
2022/07/26 04:30:02;;;;;;;17.08;5.30;;;;;;;;;;5012720;28;20443;-87
2022/07/26 04:32:30;;;;;;;13.88;5.13;;;;;;;;;;5038169;28;20787;-84
2022/07/26 04:34:56;;;;;;;16.35;5.70;;;;;;;;;;5038441;28;20423;-83
2022/07/26 04:37:23;;;;;;;17.60;5.10;;;;;;;;;;5035984;28;20411;-84
2022/07/26 04:39:49;;;;;;;15.10;5.57;;;;;;;;;;5021462;28;20407;-82
2022/07/26 04:42:15;;;;;;;18.48;5.57;;;;;;;;;;5034584;28;20435;-84
2022/07/26 04:44:45;;;;;;;12.77;5.38;;;;;;;;;;5036301;28;20429;-83
2022/07/26 04:47:11;;;;;;;16.98;5.90;;;;;;;;;;5034960;28;20433;-82
2022/07/26 04:49:39;;;;;;;16.90;6.32;;;;;;;;;;5038556;28;20526;-83
2022/07/26 04:52:06;;;;;;;14.25;6.03;;;;;;;;;;5035940;28;20929;-83
2022/07/26 04:54:32;;;;;;;12.00;6.00;;;;;;;;;;5031709;28;20430;-84
2022/07/26 04:56:58;;;;;;;15.90;6.20;;;;;;;;;;5036581;28;20439;-84
2022/07/26 04:59:25;;;;;;;13.77;5.60;;;;;;;;;;5032910;28;20683;-84
2022/07/26 05:01:51;;;;;;;17.25;6.60;;;;;;;;;;5033330;28;20425;-83
2022/07/26 05:04:17;;;;;;;13.10;5.87;;;;;;;;;;5036049;28;20423;-82
2022/07/26 05:06:45;;;;;;;15.25;6.80;;;;;;;;;;5032656;28;20429;-85
2022/07/26 05:09:12;;;;;;;11.88;6.45;;;;;;;;;;5015075;28;20500;-86
2022/07/26 05:11:38;;;;;;;15.80;7.05;;;;;;;;;;5019359;28;20440;-83
2022/07/26 05:14:05;;;;;;;14.27;6.73;;;;;;;;;;5034921;28;21138;-83
2022/07/26 05:16:31;;;;;;;14.40;5.93;;;;;;;;;;5040287;28;20444;-87
2022/07/26 05:18:58;;;;;;;13.15;5.35;;;;;;;;;;5037196;28;20423;-86
2022/07/26 05:21:24;;;;;;;10.90;4.80;;;;;;;;;;5022282;28;20800;-82
2022/07/26 05:23:55;;;;;;;10.05;5.40;;;;;;;;;;5038499;28;20433;-83
2022/07/26 05:26:21;;;;;;;12.27;4.50;;;;;;;;;;5042132;28;20434;-83
2022/07/26 05:28:47;;;;;;;9.88;4.40;;;;;;;;;;5041502;28;20806;-84
2022/07/26 05:31:14;;;;;;;8.93;4.30;;;;;;;;;;5040508;28;20426;-86
2022/07/26 05:33:40;;;;;;;11.60;4.43;;;;;;;;;;5040389;28;20426;-82
2022/07/26 05:36:07;;;;;;;9.40;4.93;;;;;;;;;;5039025;28;20436;-82
2022/07/26 05:38:34;;;;;;;9.02;4.00;;;;;;;;;;5021483;28;20429;-84
2022/07/26 05:41:01;;;;;;;9.60;4.20;;;;;;;;;;5032302;28;20434;-85
2022/07/26 05:43:28;;;;;;;8.95;4.10;;;;;;;;;;5037542;28;20421;-86
2022/07/26 05:45:56;;;;;;;9.15;3.90;;;;;;;;;;5035826;28;20425;-85
2022/07/26 05:48:23;;;;;;;6.78;3.13;;;;;;;;;;5040025;28;20421;-85
2022/07/26 05:50:49;;;;;;;6.18;3.10;;;;;;;;;;5039638;28;20430;-83
2022/07/26 05:53:16;;;;;;;5.88;2.90;;;;;;;;;;5037597;28;20429;-85
2022/07/26 05:55:42;;;;;;;9.50;3.10;;;;;;;;;;5040314;28;20429;-85
2022/07/26 05:58:10;;;;;;;7.05;3.25;;;;;;;;;;5043503;28;20407;-83
2022/07/26 06:00:37;;;;;;;8.43;2.90;;;;;;;;;;5043602;28;20804;-84
2022/07/26 06:03:20;;;;;;;8.18;2.75;;;;;;;;;;5040612;28;20423;-85
2022/07/26 06:05:47;;;;;;;5.60;2.30;;;;;;;;;;5036593;28;20536;-86
2022/07/26 06:08:13;;;;;;;8.15;3.30;;;;;;;;;;5038788;28;20428;-83
2022/07/26 06:10:39;;;;;;;10.68;3.25;;;;;;;;;;5040382;28;20444;-86
2022/07/26 06:13:06;;;;;;;9.73;2.50;;;;;;;;;;5034735;28;20421;-85
2022/07/26 06:15:34;;;;;;;6.32;2.58;;;;;;;;;;5041796;28;20427;-84
2022/07/26 06:18:00;;;;;;;6.97;2.47;;;;;;;;;;5041207;28;20409;-84
2022/07/26 06:20:26;;;;;;;7.60;2.20;;;;;;;;;;5009173;28;20497;-85
2022/07/26 06:22:53;;;;;;;7.00;2.10;;;;;;;;;;5037363;28;20425;-85
2022/07/26 06:25:19;;;;;;;5.60;2.40;;;;;;;;;;5037461;28;20425;-85
2022/07/26 06:27:46;;;;;;;6.93;1.80;;;;;;;;;;5041436;28;20419;-85
2022/07/26 06:30:13;;;;;;;7.10;1.80;;;;;;;;;;5007504;28;20943;-85
2022/07/26 06:32:43;;;;;;;8.00;1.52;;;;;;;;;;5041499;28;20417;-83
2022/07/26 06:35:09;;;;;;;2.88;1.48;;;;;;;;;;5041905;28;20422;-84
2022/07/26 06:37:36;;;;;;;8.35;1.50;;;;;;;;;;5039384;28;20908;-85
2022/07/26 06:40:02;;;;;;;4.35;1.65;;;;;;;;;;5039635;28;20932;-84
2022/07/26 06:42:29;;;;;;;5.63;1.77;;;;;;;;;;5039291;28;20785;-84
2022/07/26 06:44:55;;;;;;;3.60;1.35;;;;;;;;;;5042019;28;20912;-84
2022/07/26 06:47:21;;;;;;;7.40;1.88;;;;;;;;;;5042017;28;20405;-83
2022/07/26 06:49:50;;;;;;;5.85;1.63;;;;;;;;;;5023323;28;20902;-82
2022/07/26 06:52:16;;;;;;;4.90;1.40;;;;;;;;;;5042013;28;20435;-83
2022/07/26 06:54:42;;;;;;;6.40;1.47;;;;;;;;;;5037127;28;20918;-85
2022/07/26 06:57:09;;;;;;;5.40;1.30;;;;;;;;;;5040109;28;20832;-85
2022/07/26 06:59:36;;;;;;;5.85;1.60;;;;;;;;;;5040473;28;20417;-85
2022/07/26 07:02:02;;;;;;;6.68;1.60;;;;;;;;;;5040602;28;20437;-84
2022/07/26 07:04:29;;;;;;;6.27;1.70;;;;;;;;;;5040525;28;20434;-82
2022/07/26 07:07:03;;;;;;;6.78;1.60;;;;;;;;;;5039677;28;20427;-85
2022/07/26 07:09:30;;;;;;;4.45;1.30;;;;;;;;;;5038808;28;20458;-85
2022/07/26 07:11:56;;;;;;;3.92;1.23;;;;;;;;;;5039664;28;20432;-84
2022/07/26 07:14:23;;;;;;;4.57;1.10;;;;;;;;;;5038801;28;20799;-83
2022/07/26 07:16:49;;;;;;;3.57;1.10;;;;;;;;;;5040559;28;20413;-84
2022/07/26 07:19:16;;;;;;;4.10;1.55;;;;;;;;;;5040417;28;20420;-85
2022/07/26 07:21:42;;;;;;;9.73;3.50;;;;;;;;;;5024406;28;20432;-84
2022/07/26 07:24:10;;;;;;;5.47;2.00;;;;;;;;;;5038726;28;20421;-86
2022/07/26 07:26:37;;;;;;;4.40;1.60;;;;;;;;;;5043071;28;20423;-85
2022/07/26 07:29:03;;;;;;;5.40;1.90;;;;;;;;;;5042041;28;20425;-85
2022/07/26 07:31:29;;;;;;;6.25;2.00;;;;;;;;;;5040421;28;20442;-84
2022/07/26 07:33:56;;;;;;;5.13;1.50;;;;;;;;;;5041220;28;20911;-84
2022/07/26 07:36:23;;;;;;;22.35;8.35;;;;;;;;;;5041696;28;20425;-85
2022/07/26 07:38:49;;;;;;;5.15;2.05;;;;;;;;;;5011783;28;20910;-85
2022/07/26 07:41:18;;;;;;;8.00;2.38;;;;;;;;;;5041780;28;20406;-84
2022/07/26 07:43:44;;;;;;;12.10;4.80;;;;;;;;;;5042020;28;20766;-83
2022/07/26 07:46:11;;;;;;;7.30;1.83;;;;;;;;;;5038838;28;20439;-84
2022/07/26 07:48:39;;;;;;;4.72;1.42;;;;;;;;;;5039575;28;20471;-85
2022/07/26 07:51:06;;;;;;;6.80;1.40;;;;;;;;;;5039638;28;20413;-82
2022/07/26 07:53:32;;;;;;;4.73;1.57;;;;;;;;;;5040243;28;20822;-82
2022/07/26 07:55:59;;;;;;;4.10;1.40;;;;;;;;;;5022764;28;20426;-84
2022/07/26 07:58:27;;;;;;;6.25;1.20;;;;;;;;;;5040080;28;20497;-85
2022/07/26 08:00:54;;;;;;;6.30;1.80;;;;;;;;;;5040391;28;20415;-84
2022/07/26 08:03:20;;;;;;;5.50;1.25;;;;;;;;;;5022124;28;20420;-82
2022/07/26 08:05:47;;;;;;;5.35;1.20;;;;;;;;;;5038327;28;21271;-84
2022/07/26 08:08:15;;;;;;;5.20;1.70;;;;;;;;;;5021837;28;20427;-84
2022/07/26 08:10:42;;;;;;;5.55;1.40;;;;;;;;;;4991181;28;20414;-84
2022/07/26 08:13:08;;;;;;;7.20;1.40;;;;;;;;;;5039797;28;20942;-83
2022/07/26 08:15:36;;;;;;;4.57;0.90;;;;;;;;;;5041599;28;20432;-82
2022/07/26 08:18:02;;;;;;;2.53;1.00;;;;;;;;;;5038214;28;20427;-83
2022/07/26 08:20:28;;;;;;;3.60;1.10;;;;;;;;;;5038109;28;20434;-82
2022/07/26 08:22:56;;;;;;;6.15;1.50;;;;;;;;;;5038362;28;20445;-82
2022/07/26 08:25:22;;;;;;;3.90;1.33;;;;;;;;;;5040777;28;20413;-84
2022/07/26 08:27:48;;;;;;;5.75;1.30;;;;;;;;;;5038783;28;20423;-83
2022/07/26 08:30:15;;;;;;;5.22;1.40;;;;;;;;;;5041060;28;20865;-84
2022/07/26 08:32:43;;;;;;;5.25;1.50;;;;;;;;;;5040630;28;20417;-82
2022/07/26 08:35:10;;;;;;;4.00;1.73;;;;;;;;;;5034952;28;20933;-83
2022/07/26 08:37:37;;;;;;;5.20;1.55;;;;;;;;;;5042268;28;20410;-84
2022/07/26 08:40:04;;;;;;;4.40;1.38;;;;;;;;;;5043302;28;20415;-83
2022/07/26 08:42:30;;;;;;;8.00;1.55;;;;;;;;;;5025231;28;20849;-84
2022/07/26 08:44:58;;;;;;;6.40;1.20;;;;;;;;;;5041004;28;20433;-82
2022/07/26 08:47:25;;;;;;;6.30;1.40;;;;;;;;;;5040823;28;20792;-82
2022/07/26 08:49:52;;;;;;;5.35;1.48;;;;;;;;;;5040007;28;20434;-82
2022/07/26 08:52:19;;;;;;;4.25;1.40;;;;;;;;;;5019273;28;20469;-82
2022/07/26 08:54:46;;;;;;;8.25;1.70;;;;;;;;;;5034103;28;20425;-82
2022/07/26 08:57:14;;;;;;;3.65;1.25;;;;;;;;;;5038883;28;20435;-82
2022/07/26 08:59:40;;;;;;;8.02;1.30;;;;;;;;;;5045030;28;20575;-82
2022/07/26 09:02:08;;;;;;;5.10;1.40;;;;;;;;;;5026845;28;20796;-81
2022/07/26 09:04:35;;;;;;;4.17;1.20;;;;;;;;;;5043160;28;20444;-84
2022/07/26 09:07:04;;;;;;;3.47;1.00;;;;;;;;;;5042680;28;20432;-83
2022/07/26 09:09:31;;;;;;;5.25;1.23;;;;;;;;;;5037278;28;20949;-83
2022/07/26 09:11:58;;;;;;;5.00;1.10;;;;;;;;;;5039035;28;20438;-83
2022/07/26 09:14:35;;;;;;;4.45;1.13;;;;;;;;;;5042643;28;21085;-83
2022/07/26 09:17:01;;;;;;;4.28;1.38;;;;;;;;;;5042525;28;20422;-82
2022/07/26 09:19:28;;;;;;;3.63;1.10;;;;;;;;;;5041791;28;20424;-83
2022/07/26 09:21:56;;;;;;;4.60;1.20;;;;;;;;;;5024400;28;20510;-84
2022/07/26 09:24:31;;;;;;;3.45;1.00;;;;;;;;;;5043634;28;20424;-83
2022/07/26 09:26:58;;;;;;;4.32;1.20;;;;;;;;;;5040941;28;20537;-86
2022/07/26 09:29:25;;;;;;;3.90;1.00;;;;;;;;;;5042171;28;20423;-83
2022/07/26 09:31:51;;;;;;;6.40;1.40;;;;;;;;;;5042495;28;20424;-84
2022/07/26 09:34:24;;;;;;;8.30;1.40;;;;;;;;;;5041933;28;20426;-84
2022/07/26 09:36:51;;;;;;;6.03;1.80;;;;;;;;;;5039357;28;20438;-83
2022/07/26 09:39:17;;;;;;;5.50;2.00;;;;;;;;;;5025133;28;20443;-83
2022/07/26 09:41:46;;;;;;;4.60;1.48;;;;;;;;;;5043529;28;20417;-84
2022/07/26 09:44:20;;;;;;;4.75;1.52;;;;;;;;;;5042587;28;20430;-83
2022/07/26 09:46:51;;;;;;;3.75;1.10;;;;;;;;;;5040121;28;20426;-82
2022/07/26 09:49:18;;;;;;;4.63;0.90;;;;;;;;;;5022235;28;20850;-83
2022/07/26 09:51:46;;;;;;;2.90;1.00;;;;;;;;;;5041844;28;20439;-82
2022/07/26 09:54:17;;;;;;;4.70;1.10;;;;;;;;;;5042956;28;20427;-84
2022/07/26 09:56:45;;;;;;;3.35;1.08;;;;;;;;;;5044350;28;20419;-83
2022/07/26 09:59:12;;;;;;;5.57;1.10;;;;;;;;;;5041321;28;20437;-83
2022/07/26 10:01:39;;;;;;;4.00;1.40;;;;;;;;;;5044268;28;20432;-82
2022/07/26 10:04:06;;;;;;;2.83;1.10;;;;;;;;;;5041671;28;20419;-83
2022/07/26 10:06:32;;;;;;;4.80;1.45;;;;;;;;;;5041002;28;20812;-83
2022/07/26 10:09:00;;;;;;;4.13;1.60;;;;;;;;;;5019981;28;20451;-82
2022/07/26 10:11:28;;;;;;;5.00;1.70;;;;;;;;;;5045177;28;20406;-83
2022/07/26 10:13:57;;;;;;;4.22;1.15;;;;;;;;;;5042739;28;20417;-83
2022/07/26 10:16:33;;;;;;;5.72;1.10;;;;;;;;;;5043999;28;20413;-82
2022/07/26 10:19:01;;;;;;;5.70;1.30;;;;;;;;;;5041221;28;20446;-83
2022/07/26 10:21:29;;;;;;;4.85;1.42;;;;;;;;;;5041933;28;20525;-83
2022/07/26 10:23:57;;;;;;;3.17;1.48;;;;;;;;;;5035733;28;20942;-82
2022/07/26 10:26:35;;;;;;;5.60;1.25;;;;;;;;;;5041971;28;20463;-83
2022/07/26 10:29:26;;;;;;;3.73;1.43;;;;;;;;;;5042190;28;20432;-83
2022/07/26 10:32:07;;;;;;;7.15;1.33;;;;;;;;;;5041566;28;20928;-83
2022/07/26 10:34:35;;;;;;;4.22;1.05;;;;;;;;;;5041511;28;20428;-83
2022/07/26 10:37:02;;;;;;;3.92;1.17;;;;;;;;;;5038839;28;20440;-82
2022/07/26 10:39:29;;;;;;;3.70;1.70;;;;;;;;;;5041515;28;20796;-82
2022/07/26 10:41:58;;;;;;;5.40;1.85;;;;;;;;;;5042075;28;21018;-84
2022/07/26 10:44:29;;;;;;;5.45;1.55;;;;;;;;;;5041908;28;20432;-82
2022/07/26 10:47:14;;;;;;;7.10;1.70;;;;;;;;;;5043564;28;20414;-82
2022/07/26 10:49:42;;;;;;;6.13;1.70;;;;;;;;;;5006692;28;20413;-81
2022/07/26 10:52:13;;;;;;;4.20;1.20;;;;;;;;;;5043463;28;20774;-81
2022/07/26 10:54:58;;;;;;;5.75;1.50;;;;;;;;;;5042639;28;20420;-83
2022/07/26 10:57:25;;;;;;;4.50;1.30;;;;;;;;;;5043043;28;20420;-83
2022/07/26 10:59:55;;;;;;;4.30;1.73;;;;;;;;;;5041912;28;20429;-81
2022/07/26 11:02:23;;;;;;;8.10;2.10;;;;;;;;;;5042251;28;20419;-81
2022/07/26 11:04:58;;;;;;;6.57;1.73;;;;;;;;;;5041754;28;20457;-81
2022/07/26 11:07:26;;;;;;;5.87;1.87;;;;;;;;;;5043327;28;21510;-81
2022/07/26 11:09:55;;;;;;;9.65;2.28;;;;;;;;;;5042993;28;20422;-82
2022/07/26 11:12:22;;;;;;;4.53;1.80;;;;;;;;;;5042680;28;20411;-81
2022/07/26 11:14:49;;;;;;;10.70;2.00;;;;;;;;;;5020879;28;20444;-80
2022/07/26 11:17:24;;;;;;;8.55;2.50;;;;;;;;;;5041932;28;20454;-81
2022/07/26 11:19:51;;;;;;;8.48;2.25;;;;;;;;;;5040288;28;20880;-81
2022/07/26 11:22:18;;;;;;;10.70;2.90;;;;;;;;;;5041037;28;20790;-82
2022/07/26 11:24:44;;;;;;;12.02;3.10;;;;;;;;;;5042036;28;20469;-82
2022/07/26 11:27:11;;;;;;;12.77;3.00;;;;;;;;;;5024223;28;20494;-82
2022/07/26 11:29:38;;;;;;;10.93;2.40;;;;;;;;;;5042643;28;20514;-82
2022/07/26 11:32:05;;;;;;;11.10;3.10;;;;;;;;;;5018705;28;20433;-82
2022/07/26 11:34:34;;;;;;;10.65;3.22;;;;;;;;;;5041364;28;20510;-82
2022/07/26 11:37:01;;;;;;;11.35;2.80;;;;;;;;;;5038600;28;20912;-82
2022/07/26 11:39:28;;;;;;;9.35;2.40;;;;;;;;;;5022028;28;20417;-83
2022/07/26 11:41:56;;;;;;;9.40;2.60;;;;;;;;;;5041792;28;20927;-82
2022/07/26 11:44:23;;;;;;;9.65;3.30;;;;;;;;;;5043163;28;20419;-82
2022/07/26 11:46:50;;;;;;;8.77;2.47;;;;;;;;;;5038783;28;20459;-81
2022/07/26 11:49:18;;;;;;;14.35;2.65;;;;;;;;;;5037957;28;20419;-80
2022/07/26 11:51:53;;;;;;;10.52;2.58;;;;;;;;;;5041091;28;20496;-80
2022/07/26 11:54:20;;;;;;;10.38;2.50;;;;;;;;;;5038809;28;20426;-81
2022/07/26 11:56:51;;;;;;;13.17;2.93;;;;;;;;;;5042326;28;20783;-81
2022/07/26 11:59:18;;;;;;;9.50;2.42;;;;;;;;;;5041813;28;20423;-84
2022/07/26 12:01:45;;;;;;;8.57;2.20;;;;;;;;;;5041460;28;20432;-80
2022/07/26 12:04:18;;;;;;;10.95;2.80;;;;;;;;;;5040422;28;20426;-81
2022/07/26 12:06:44;;;;;;;8.45;2.45;;;;;;;;;;5039263;28;20434;-80
2022/07/26 12:09:12;;;;;;;7.63;2.30;;;;;;;;;;5040346;28;20426;-80
2022/07/26 12:11:40;;;;;;;8.73;2.80;;;;;;;;;;5039586;28;20414;-81
2022/07/26 12:14:07;;;;;;;9.10;3.28;;;;;;;;;;5040825;28;20496;-82
2022/07/26 12:16:41;;;;;;;11.63;3.00;;;;;;;;;;5041225;28;20802;-82
2022/07/26 12:19:08;;;;;;;10.90;2.55;;;;;;;;;;5034540;28;20419;-83
2022/07/26 12:21:39;;;;;;;9.75;2.17;;;;;;;;;;5039969;28;20432;-81
2022/07/26 12:24:05;;;;;;;8.00;2.40;;;;;;;;;;5040264;28;20940;-80
2022/07/26 12:26:34;;;;;;;10.18;2.70;;;;;;;;;;5040813;28;20417;-82
2022/07/26 12:29:23;;;;;;;7.95;2.42;;;;;;;;;;5042477;28;20425;-81
2022/07/26 12:31:59;;;;;;;7.75;2.40;;;;;;;;;;5041418;28;20434;-81
2022/07/26 12:34:26;;;;;;;8.52;2.30;;;;;;;;;;5038550;28;20935;-81
2022/07/26 12:36:52;;;;;;;5.50;1.80;;;;;;;;;;5038661;28;20441;-81
2022/07/26 12:39:19;;;;;;;8.65;2.20;;;;;;;;;;5008506;28;20450;-80
2022/07/26 12:41:49;;;;;;;6.88;2.05;;;;;;;;;;5041262;28;20426;-80
2022/07/26 12:44:16;;;;;;;7.60;2.03;;;;;;;;;;5038970;28;20418;-81
2022/07/26 12:46:43;;;;;;;5.50;2.00;;;;;;;;;;5040270;28;20413;-82
2022/07/26 12:49:10;;;;;;;4.97;1.92;;;;;;;;;;5039160;28;20926;-80
2022/07/26 12:51:36;;;;;;;8.07;1.83;;;;;;;;;;5024860;28;20465;-81
2022/07/26 12:54:05;;;;;;;8.65;2.40;;;;;;;;;;5038454;28;20433;-81
2022/07/26 12:56:31;;;;;;;8.70;2.22;;;;;;;;;;5041878;28;20419;-81
2022/07/26 12:59:00;;;;;;;6.43;1.93;;;;;;;;;;5040272;28;20981;-81
2022/07/26 13:01:27;;;;;;;6.40;1.90;;;;;;;;;;5042007;28;20445;-82
2022/07/26 13:03:54;;;;;;;6.72;2.00;;;;;;;;;;5039435;28;20928;-83
2022/07/26 13:06:21;;;;;;;7.97;1.73;;;;;;;;;;5039494;28;20446;-81
2022/07/26 13:08:48;;;;;;;7.95;2.03;;;;;;;;;;5039446;28;20423;-82
2022/07/26 13:11:15;;;;;;;7.27;2.20;;;;;;;;;;5036426;28;20431;-82
2022/07/26 13:13:41;;;;;;;8.60;1.83;;;;;;;;;;5041394;28;20807;-82
2022/07/26 13:16:09;;;;;;;6.77;2.10;;;;;;;;;;5042064;28;20422;-81
2022/07/26 13:18:36;;;;;;;6.43;1.95;;;;;;;;;;5038952;28;20778;-82
2022/07/26 13:21:02;;;;;;;6.10;1.58;;;;;;;;;;5040950;28;20425;-81
2022/07/26 13:23:28;;;;;;;7.00;2.00;;;;;;;;;;5041904;28;20419;-81
2022/07/26 13:25:55;;;;;;;8.10;1.95;;;;;;;;;;5037993;28;20968;-81
2022/07/26 13:28:21;;;;;;;5.50;1.70;;;;;;;;;;5041053;28;20441;-81
2022/07/26 13:30:48;;;;;;;6.45;1.50;;;;;;;;;;5041797;28;20420;-81
2022/07/26 13:33:16;;;;;;;3.90;1.50;;;;;;;;;;5023389;28;20422;-81
2022/07/26 13:35:42;;;;;;;5.67;1.67;;;;;;;;;;5036485;28;20950;-83
2022/07/26 13:38:09;;;;;;;6.53;1.80;;;;;;;;;;5040782;28;20432;-81
2022/07/26 13:40:35;;;;;;;3.90;1.40;;;;;;;;;;5039639;28;20419;-81
2022/07/26 13:43:02;;;;;;;4.80;1.90;;;;;;;;;;5038561;28;20435;-82
2022/07/26 13:45:30;;;;;;;3.90;1.40;;;;;;;;;;5012095;28;20415;-81
2022/07/26 13:47:56;;;;;;;6.10;1.52;;;;;;;;;;5042529;28;20503;-81
2022/07/26 13:50:24;;;;;;;2.27;1.20;;;;;;;;;;5043198;28;20429;-83
2022/07/26 13:52:51;;;;;;;5.13;1.77;;;;;;;;;;5041951;28;20412;-81
2022/07/26 13:55:17;;;;;;;7.67;1.70;;;;;;;;;;5044420;28;20898;-81
2022/07/26 13:57:44;;;;;;;4.85;1.70;;;;;;;;;;5041942;28;20431;-81
2022/07/26 14:00:11;;;;;;;5.80;1.98;;;;;;;;;;5043119;28;20785;-81
2022/07/26 14:02:37;;;;;;;6.40;1.50;;;;;;;;;;5041925;28;20423;-81
2022/07/26 14:05:04;;;;;;;7.07;1.88;;;;;;;;;;5010472;28;20487;-81
2022/07/26 14:07:32;;;;;;;5.43;1.90;;;;;;;;;;5006872;28;20405;-81
2022/07/26 14:09:58;;;;;;;6.30;1.77;;;;;;;;;;5045082;28;20895;-81
2022/07/26 14:12:25;;;;;;;5.93;1.77;;;;;;;;;;5041387;28;20936;-81
2022/07/26 14:14:51;;;;;;;6.47;1.90;;;;;;;;;;5043136;28;20935;-81
2022/07/26 14:17:17;;;;;;;5.57;1.63;;;;;;;;;;5041321;28;20434;-80
2022/07/26 14:19:44;;;;;;;9.02;1.80;;;;;;;;;;5041099;28;20421;-80
2022/07/26 14:22:10;;;;;;;5.25;1.73;;;;;;;;;;5042641;28;20451;-81
2022/07/26 14:24:38;;;;;;;8.48;1.80;;;;;;;;;;5044719;28;20420;-81
2022/07/26 14:27:05;;;;;;;3.88;1.60;;;;;;;;;;5043340;28;20461;-80
2022/07/26 14:29:31;;;;;;;4.43;1.67;;;;;;;;;;5045253;28;20418;-80
2022/07/26 14:31:58;;;;;;;3.20;1.20;;;;;;;;;;5042113;28;20454;-81
2022/07/26 14:34:25;;;;;;;6.13;1.60;;;;;;;;;;5024692;28;20426;-81
2022/07/26 14:36:51;;;;;;;5.20;1.50;;;;;;;;;;5043092;28;20437;-80
2022/07/26 14:39:17;;;;;;;3.55;1.23;;;;;;;;;;5041471;28;20795;-80
2022/07/26 14:41:45;;;;;;;5.18;1.40;;;;;;;;;;5043568;28;20808;-80